sensor_id;sensor_type;location;lat;lon;timestamp;pressure;altitude;pressure_sealevel;temperature;humidity
37132;BME280;23035;50.032;21.978;2023-03-19T00:01:03;65930.09;;;7.21;58.69
37132;BME280;23035;50.032;21.978;2023-03-19T00:06:18;65938.84;;;7.34;58.59
37132;BME280;23035;50.032;21.978;2023-03-19T00:11:22;65886.34;;;6.81;60.73
37132;BME280;23035;50.032;21.978;2023-03-19T00:16:27;65865.41;;;6.59;60.49
37132;BME280;23035;50.032;21.978;2023-03-19T00:21:31;65887.31;;;6.80;60.12
37132;BME280;23035;50.032;21.978;2023-03-19T00:26:35;65906.13;;;7.00;59.44
37132;BME280;23035;50.032;21.978;2023-03-19T00:31:41;65899.09;;;6.91;61.50
37132;BME280;23035;50.032;21.978;2023-03-19T00:36:45;65893.19;;;6.85;60.59
37132;BME280;23035;50.032;21.978;2023-03-19T00:41:50;65911.38;;;7.03;60.90
37132;BME280;23035;50.032;21.978;2023-03-19T00:46:56;65847.75;;;6.42;62.43
37132;BME280;23035;50.032;21.978;2023-03-19T00:52:00;65890.09;;;6.85;62.09
37132;BME280;23035;50.032;21.978;2023-03-19T00:57:07;65823.59;;;6.17;64.24
37132;BME280;23035;50.032;21.978;2023-03-19T01:02:13;65826.47;;;6.24;64.87
37132;BME280;23035;50.032;21.978;2023-03-19T01:07:17;65813.19;;;6.14;64.47
37132;BME280;23035;50.032;21.978;2023-03-19T01:12:21;65824.25;;;6.20;65.00
37132;BME280;23035;50.032;21.978;2023-03-19T01:17:26;65788.63;;;5.91;66.66
37132;BME280;23035;50.032;21.978;2023-03-19T01:22:30;65794.41;;;5.94;67.08
37132;BME280;23035;50.032;21.978;2023-03-19T01:27:37;65838.13;;;6.33;65.16
37132;BME280;23035;50.032;21.978;2023-03-19T01:32:43;65807.75;;;6.07;66.31
37132;BME280;23035;50.032;21.978;2023-03-19T01:38:00;65814.19;;;6.13;66.65
37132;BME280;23035;50.032;21.978;2023-03-19T01:43:14;65762.34;;;5.63;68.30
37132;BME280;23035;50.032;21.978;2023-03-19T01:48:43;65756.88;;;5.56;69.35
37132;BME280;23035;50.032;21.978;2023-03-19T01:53:54;65781.91;;;5.77;69.31
37132;BME280;23035;50.032;21.978;2023-03-19T01:59:32;65778.25;;;5.76;70.39
37132;BME280;23035;50.032;21.978;2023-03-19T02:04:54;65768.09;;;5.66;71.00
37132;BME280;23035;50.032;21.978;2023-03-19T02:10:01;65757.63;;;5.61;71.94
37132;BME280;23035;50.032;21.978;2023-03-19T02:15:06;65715.75;;;5.16;73.19
37132;BME280;23035;50.032;21.978;2023-03-19T02:20:16;65695.56;;;5.00;75.20
37132;BME280;23035;50.032;21.978;2023-03-19T02:25:26;65739.25;;;5.39;74.47
37132;BME280;23035;50.032;21.978;2023-03-19T02:30:36;65743.53;;;5.43;74.25
37132;BME280;23035;50.032;21.978;2023-03-19T02:35:45;65740.22;;;5.37;74.58
37132;BME280;23035;50.032;21.978;2023-03-19T02:40:55;65668.25;;;4.71;77.69
37132;BME280;23035;50.032;21.978;2023-03-19T02:46:04;65716.38;;;5.19;76.13
37132;BME280;23035;50.032;21.978;2023-03-19T02:51:10;65672.09;;;4.77;78.38
37132;BME280;23035;50.032;21.978;2023-03-19T02:56:15;65676.47;;;4.84;78.27
37132;BME280;23035;50.032;21.978;2023-03-19T03:01:20;65681.16;;;4.86;78.88
37132;BME280;23035;50.032;21.978;2023-03-19T03:06:24;65655.44;;;4.59;81.29
37132;BME280;23035;50.032;21.978;2023-03-19T03:11:29;65666.84;;;4.75;80.14
37132;BME280;23035;50.032;21.978;2023-03-19T03:16:34;65658.41;;;4.69;80.84
37132;BME280;23035;50.032;21.978;2023-03-19T03:21:39;65645.19;;;4.47;82.79
37132;BME280;23035;50.032;21.978;2023-03-19T03:26:44;65642.63;;;4.47;82.49
37132;BME280;23035;50.032;21.978;2023-03-19T03:31:51;65633.75;;;4.43;82.63
37132;BME280;23035;50.032;21.978;2023-03-19T03:36:55;65659.81;;;4.66;82.33
37132;BME280;23035;50.032;21.978;2023-03-19T03:42:00;65653.75;;;4.55;82.97
37132;BME280;23035;50.032;21.978;2023-03-19T03:47:07;65712.03;;;5.13;79.96
37132;BME280;23035;50.032;21.978;2023-03-19T03:52:11;65710.00;;;5.13;79.23
37132;BME280;23035;50.032;21.978;2023-03-19T03:57:16;65656.84;;;4.55;82.04
37132;BME280;23035;50.032;21.978;2023-03-19T04:02:22;65626.19;;;4.34;83.56
37132;BME280;23035;50.032;21.978;2023-03-19T04:07:27;65595.13;;;4.01;86.58
37132;BME280;23035;50.032;21.978;2023-03-19T04:12:32;65598.00;;;4.09;86.31
37132;BME280;23035;50.032;21.978;2023-03-19T04:17:38;65596.94;;;4.08;85.94
37132;BME280;23035;50.032;21.978;2023-03-19T04:22:44;65595.25;;;4.04;86.30
37132;BME280;23035;50.032;21.978;2023-03-19T04:27:48;65612.13;;;4.15;85.48
37132;BME280;23035;50.032;21.978;2023-03-19T04:32:54;65577.53;;;3.85;87.88
37132;BME280;23035;50.032;21.978;2023-03-19T04:37:58;65565.78;;;3.73;88.58
37132;BME280;23035;50.032;21.978;2023-03-19T04:43:02;65573.91;;;3.84;88.10
37132;BME280;23035;50.032;21.978;2023-03-19T04:48:10;65581.47;;;3.93;87.60
37132;BME280;23035;50.032;21.978;2023-03-19T04:53:15;65606.34;;;4.12;86.13
37132;BME280;23035;50.032;21.978;2023-03-19T04:58:20;65578.16;;;3.88;86.54
37132;BME280;23035;50.032;21.978;2023-03-19T05:03:33;65603.69;;;4.10;83.71
37132;BME280;23035;50.032;21.978;2023-03-19T05:08:38;65637.94;;;4.45;81.15
37132;BME280;23035;50.032;21.978;2023-03-19T05:13:42;65701.53;;;5.08;77.26
37132;BME280;23035;50.032;21.978;2023-03-19T05:18:49;65747.91;;;5.50;72.50
37132;BME280;23035;50.032;21.978;2023-03-19T05:23:53;65746.84;;;5.48;72.20
37132;BME280;23035;50.032;21.978;2023-03-19T05:28:59;65740.84;;;5.40;72.84
37132;BME280;23035;50.032;21.978;2023-03-19T05:34:14;65762.88;;;5.64;70.98
37132;BME280;23035;50.032;21.978;2023-03-19T05:39:18;65803.50;;;6.02;70.57
37132;BME280;23035;50.032;21.978;2023-03-19T05:44:23;65859.50;;;6.53;67.61
37132;BME280;23035;50.032;21.978;2023-03-19T05:49:34;65876.81;;;6.75;66.54
37132;BME280;23035;50.032;21.978;2023-03-19T05:54:39;65855.13;;;6.47;67.19
37132;BME280;23035;50.032;21.978;2023-03-19T06:00:09;65903.81;;;6.93;64.32
37132;BME280;23035;50.032;21.978;2023-03-19T06:05:15;65913.50;;;7.05;64.47
37132;BME280;23035;50.032;21.978;2023-03-19T06:10:20;65928.41;;;7.16;63.81
37132;BME280;23035;50.032;21.978;2023-03-19T06:15:28;65955.16;;;7.42;62.98
37132;BME280;23035;50.032;21.978;2023-03-19T06:20:58;66007.41;;;8.01;62.25
37132;BME280;23035;50.032;21.978;2023-03-19T06:26:02;66189.44;;;9.72;55.82
37132;BME280;23035;50.032;21.978;2023-03-19T06:31:15;66102.66;;;8.89;57.10
37132;BME280;23035;50.032;21.978;2023-03-19T06:36:30;66107.38;;;8.91;57.53
37132;BME280;23035;50.032;21.978;2023-03-19T06:41:36;66129.25;;;9.10;57.81
37132;BME280;23035;50.032;21.978;2023-03-19T06:46:48;66135.69;;;9.16;57.70
37132;BME280;23035;50.032;21.978;2023-03-19T06:51:53;66187.22;;;9.67;56.00
37132;BME280;23035;50.032;21.978;2023-03-19T06:56:58;66203.94;;;9.86;55.45
37132;BME280;23035;50.032;21.978;2023-03-19T07:02:02;66204.81;;;9.82;55.99
37132;BME280;23035;50.032;21.978;2023-03-19T07:07:08;66219.91;;;9.98;55.25
37132;BME280;23035;50.032;21.978;2023-03-19T07:12:12;66212.41;;;9.91;56.23
37132;BME280;23035;50.032;21.978;2023-03-19T07:17:17;66237.50;;;10.13;56.64
37132;BME280;23035;50.032;21.978;2023-03-19T07:22:22;66205.88;;;9.83;57.49
37132;BME280;23035;50.032;21.978;2023-03-19T07:27:26;66312.72;;;10.86;53.61
37132;BME280;23035;50.032;21.978;2023-03-19T07:32:33;66240.09;;;10.13;56.77
37132;BME280;23035;50.032;21.978;2023-03-19T07:37:39;66265.16;;;10.46;55.67
37132;BME280;23035;50.032;21.978;2023-03-19T07:42:43;66274.28;;;10.40;56.97
37132;BME280;23035;50.032;21.978;2023-03-19T07:47:48;66303.59;;;10.78;56.94
37132;BME280;23035;50.032;21.978;2023-03-19T07:52:54;66342.22;;;11.14;56.88
37132;BME280;23035;50.032;21.978;2023-03-19T07:57:58;66287.50;;;10.62;57.69
37132;BME280;23035;50.032;21.978;2023-03-19T08:03:03;66267.56;;;10.41;59.20
37132;BME280;23035;50.032;21.978;2023-03-19T08:08:09;66273.00;;;10.49;58.20
37132;BME280;23035;50.032;21.978;2023-03-19T08:13:13;66292.41;;;10.70;58.05
37132;BME280;23035;50.032;21.978;2023-03-19T08:18:17;66330.41;;;11.03;57.40
37132;BME280;23035;50.032;21.978;2023-03-19T08:23:23;66346.03;;;11.20;56.60
37132;BME280;23035;50.032;21.978;2023-03-19T08:28:28;66337.84;;;11.08;56.57
37132;BME280;23035;50.032;21.978;2023-03-19T08:33:33;66344.28;;;11.14;55.66
37132;BME280;23035;50.032;21.978;2023-03-19T08:38:39;66324.50;;;10.98;56.66
37132;BME280;23035;50.032;21.978;2023-03-19T08:43:43;66402.94;;;11.74;55.41
37132;BME280;23035;50.032;21.978;2023-03-19T08:48:47;66335.69;;;11.06;55.92
37132;BME280;23035;50.032;21.978;2023-03-19T08:53:53;66350.97;;;11.28;54.89
37132;BME280;23035;50.032;21.978;2023-03-19T08:58:57;66375.34;;;11.41;56.05
37132;BME280;23035;50.032;21.978;2023-03-19T09:04:01;66423.28;;;11.91;53.39
37132;BME280;23035;50.032;21.978;2023-03-19T09:09:08;66411.91;;;11.78;54.80
37132;BME280;23035;50.032;21.978;2023-03-19T09:14:12;66467.78;;;12.31;52.72
37132;BME280;23035;50.032;21.978;2023-03-19T09:19:17;66463.09;;;12.31;51.65
37132;BME280;23035;50.032;21.978;2023-03-19T09:24:23;66424.91;;;11.93;52.79
37132;BME280;23035;50.032;21.978;2023-03-19T09:29:27;66470.47;;;12.33;53.39
37132;BME280;23035;50.032;21.978;2023-03-19T09:34:31;66430.88;;;12.01;51.58
37132;BME280;23035;50.032;21.978;2023-03-19T09:39:37;66409.75;;;11.76;51.93
37132;BME280;23035;50.032;21.978;2023-03-19T09:44:42;66475.44;;;12.43;50.72
37132;BME280;23035;50.032;21.978;2023-03-19T09:49:49;66447.44;;;12.14;50.45
37132;BME280;23035;50.032;21.978;2023-03-19T09:54:56;66536.00;;;12.96;49.95
37132;BME280;23035;50.032;21.978;2023-03-19T10:00:10;66467.84;;;12.33;49.66
37132;BME280;23035;50.032;21.978;2023-03-19T10:05:26;66560.19;;;13.18;48.19
37132;BME280;23035;50.032;21.978;2023-03-19T10:10:44;66682.88;;;14.37;46.12
37132;BME280;23035;50.032;21.978;2023-03-19T10:15:53;66671.56;;;14.26;44.97
37132;BME280;23035;50.032;21.978;2023-03-19T10:21:06;66625.84;;;13.83;46.95
37132;BME280;23035;50.032;21.978;2023-03-19T10:26:15;66753.88;;;15.04;44.36
37132;BME280;23035;50.032;21.978;2023-03-19T10:31:26;66597.97;;;13.59;45.56
37132;BME280;23035;50.032;21.978;2023-03-19T10:36:34;66638.75;;;13.95;45.31
37132;BME280;23035;50.032;21.978;2023-03-19T10:41:51;66719.47;;;14.72;43.92
37132;BME280;23035;50.032;21.978;2023-03-19T10:47:10;66603.75;;;13.60;46.83
37132;BME280;23035;50.032;21.978;2023-03-19T10:52:18;66595.84;;;13.57;45.06
37132;BME280;23035;50.032;21.978;2023-03-19T10:57:27;66665.13;;;14.20;43.30
37132;BME280;23035;50.032;21.978;2023-03-19T11:02:32;66639.22;;;13.93;41.84
37132;BME280;23035;50.032;21.978;2023-03-19T11:07:36;66597.22;;;13.51;44.63
37132;BME280;23035;50.032;21.978;2023-03-19T11:12:46;66705.63;;;14.63;41.55
37132;BME280;23035;50.032;21.978;2023-03-19T11:17:56;66697.34;;;14.48;41.85
37132;BME280;23035;50.032;21.978;2023-03-19T11:23:03;66797.50;;;15.45;40.83
37132;BME280;23035;50.032;21.978;2023-03-19T11:28:13;66766.19;;;15.13;39.87
37132;BME280;23035;50.032;21.978;2023-03-19T11:33:43;66879.91;;;16.23;37.88
37132;BME280;23035;50.032;21.978;2023-03-19T11:39:05;66815.75;;;15.60;37.18
37132;BME280;23035;50.032;21.978;2023-03-19T11:44:16;66745.69;;;14.91;38.24
37132;BME280;23035;50.032;21.978;2023-03-19T11:49:41;66726.47;;;14.78;39.11
37132;BME280;23035;50.032;21.978;2023-03-19T11:55:01;66850.34;;;15.98;37.73
37132;BME280;23035;50.032;21.978;2023-03-19T12:00:20;66864.22;;;16.06;37.37
37132;BME280;23035;50.032;21.978;2023-03-19T12:05:31;67021.13;;;17.57;34.94
37132;BME280;23035;50.032;21.978;2023-03-19T12:10:51;67023.25;;;17.59;34.19
37132;BME280;23035;50.032;21.978;2023-03-19T12:16:08;66863.75;;;16.08;35.77
37132;BME280;23035;50.032;21.978;2023-03-19T12:21:19;66909.00;;;16.51;35.86
37132;BME280;23035;50.032;21.978;2023-03-19T12:26:34;67014.09;;;17.50;34.66
37132;BME280;23035;50.032;21.978;2023-03-19T12:31:53;66879.38;;;16.23;35.86
37132;BME280;23035;50.032;21.978;2023-03-19T12:37:11;66885.75;;;16.26;35.15
37132;BME280;23035;50.032;21.978;2023-03-19T12:42:17;66987.09;;;17.22;35.25
37132;BME280;23035;50.032;21.978;2023-03-19T12:47:26;67125.16;;;18.52;33.13
37132;BME280;23035;50.032;21.978;2023-03-19T12:52:34;67034.06;;;17.69;33.63
37132;BME280;23035;50.032;21.978;2023-03-19T12:57:44;67126.25;;;18.53;32.86
37132;BME280;23035;50.032;21.978;2023-03-19T13:02:55;67294.16;;;20.12;30.82
37132;BME280;23035;50.032;21.978;2023-03-19T13:08:13;67360.16;;;20.76;29.61
37132;BME280;23035;50.032;21.978;2023-03-19T13:13:30;67198.63;;;19.24;30.53
37132;BME280;23035;50.032;21.978;2023-03-19T13:18:42;67172.19;;;18.99;30.17
37132;BME280;23035;50.032;21.978;2023-03-19T13:23:59;67072.38;;;18.05;31.65
37132;BME280;23035;50.032;21.978;2023-03-19T13:29:13;67084.75;;;18.17;31.44
37132;BME280;23035;50.032;21.978;2023-03-19T13:34:24;67219.09;;;19.41;30.23
37132;BME280;23035;50.032;21.978;2023-03-19T13:39:31;67241.84;;;19.65;29.88
37132;BME280;23035;50.032;21.978;2023-03-19T13:44:41;67323.34;;;20.39;29.33
37132;BME280;23035;50.032;21.978;2023-03-19T13:55:44;67021.03;;;17.54;32.35
37132;BME280;23035;50.032;21.978;2023-03-19T14:00:56;67144.63;;;18.71;31.89
37132;BME280;23035;50.032;21.978;2023-03-19T14:06:01;67293.78;;;20.16;30.95
37132;BME280;23035;50.032;21.978;2023-03-19T14:11:07;67268.19;;;19.85;30.80
37132;BME280;23035;50.032;21.978;2023-03-19T14:16:16;67118.63;;;18.44;32.35
37132;BME280;23035;50.032;21.978;2023-03-19T14:21:34;67164.63;;;18.92;31.59
37132;BME280;23035;50.032;21.978;2023-03-19T14:26:50;67246.72;;;19.69;30.33
37132;BME280;23035;50.032;21.978;2023-03-19T14:31:56;67156.97;;;18.80;31.14
37132;BME280;23035;50.032;21.978;2023-03-19T14:37:13;67140.38;;;18.69;31.05
37132;BME280;23035;50.032;21.978;2023-03-19T14:42:25;67228.81;;;19.50;30.55
37132;BME280;23035;50.032;21.978;2023-03-19T14:53:34;67139.53;;;18.58;31.69
37132;BME280;23035;50.032;21.978;2023-03-19T14:58:54;67049.66;;;17.81;32.69
37132;BME280;23035;50.032;21.978;2023-03-19T15:04:05;66993.69;;;17.33;33.20
37132;BME280;23035;50.032;21.978;2023-03-19T15:09:16;66952.59;;;16.89;34.46
37132;BME280;23035;50.032;21.978;2023-03-19T15:14:41;66967.22;;;17.06;33.80
37132;BME280;23035;50.032;21.978;2023-03-19T15:19:54;66994.16;;;17.31;33.67
37132;BME280;23035;50.032;21.978;2023-03-19T15:25:05;67006.56;;;17.43;34.20
37132;BME280;23035;50.032;21.978;2023-03-19T15:30:22;67014.66;;;17.51;34.05
37132;BME280;23035;50.032;21.978;2023-03-19T15:35:32;66998.47;;;17.35;33.48
37132;BME280;23035;50.032;21.978;2023-03-19T15:40:40;66982.44;;;17.25;33.74
37132;BME280;23035;50.032;21.978;2023-03-19T15:45:49;66962.22;;;16.96;34.55
37132;BME280;23035;50.032;21.978;2023-03-19T15:50:58;66929.47;;;16.70;35.04
37132;BME280;23035;50.032;21.978;2023-03-19T15:56:04;66911.53;;;16.48;35.65
37132;BME280;23035;50.032;21.978;2023-03-19T16:01:11;66906.22;;;16.46;35.92
37132;BME280;23035;50.032;21.978;2023-03-19T16:06:20;66816.19;;;15.58;36.89
37132;BME280;23035;50.032;21.978;2023-03-19T16:11:29;66821.69;;;15.66;37.49
37132;BME280;23035;50.032;21.978;2023-03-19T16:16:41;66645.16;;;13.99;39.31
37132;BME280;23035;50.032;21.978;2023-03-19T16:21:45;66609.09;;;13.65;40.74
37132;BME280;23035;50.032;21.978;2023-03-19T16:26:51;66589.91;;;13.52;41.71
37132;BME280;23035;50.032;21.978;2023-03-19T16:31:59;66573.63;;;13.31;42.33
37132;BME280;23035;50.032;21.978;2023-03-19T16:37:25;66523.72;;;12.86;43.39
37132;BME280;23035;50.032;21.978;2023-03-19T16:42:36;66533.31;;;12.93;43.76
37132;BME280;23035;50.032;21.978;2023-03-19T16:47:44;66479.66;;;12.45;45.10
37132;BME280;23035;50.032;21.978;2023-03-19T16:52:49;66435.09;;;12.02;46.40
37132;BME280;23035;50.032;21.978;2023-03-19T16:57:56;66406.00;;;11.72;47.75
37132;BME280;23035;50.032;21.978;2023-03-19T17:03:02;66424.28;;;11.90;48.23
37132;BME280;23035;50.032;21.978;2023-03-19T17:08:06;66405.53;;;11.74;48.53
37132;BME280;23035;50.032;21.978;2023-03-19T17:13:15;66386.75;;;11.57;49.51
37132;BME280;23035;50.032;21.978;2023-03-19T17:18:27;66374.41;;;11.45;50.09
37132;BME280;23035;50.032;21.978;2023-03-19T17:23:33;66450.13;;;12.17;49.97
37132;BME280;23035;50.032;21.978;2023-03-19T17:28:37;66407.00;;;11.71;51.72
37132;BME280;23035;50.032;21.978;2023-03-19T17:33:43;66360.81;;;11.27;54.27
37132;BME280;23035;50.032;21.978;2023-03-19T17:38:47;66328.81;;;11.02;55.03
37132;BME280;23035;50.032;21.978;2023-03-19T17:43:51;66288.56;;;10.63;56.11
37132;BME280;23035;50.032;21.978;2023-03-19T17:48:56;66262.66;;;10.34;58.10
37132;BME280;23035;50.032;21.978;2023-03-19T17:54:00;66299.84;;;10.74;57.10
37132;BME280;23035;50.032;21.978;2023-03-19T17:59:05;66293.31;;;10.66;57.68
37132;BME280;23035;50.032;21.978;2023-03-19T18:04:11;66365.75;;;11.34;56.09
37132;BME280;23035;50.032;21.978;2023-03-19T18:09:19;66451.13;;;12.15;52.51
37132;BME280;23035;50.032;21.978;2023-03-19T18:14:23;66331.50;;;11.04;56.40
37132;BME280;23035;50.032;21.978;2023-03-19T18:19:30;66366.91;;;11.38;58.36
37132;BME280;23035;50.032;21.978;2023-03-19T18:24:35;66296.06;;;10.71;59.57
37132;BME280;23035;50.032;21.978;2023-03-19T18:29:39;66290.25;;;10.68;59.46
37132;BME280;23035;50.032;21.978;2023-03-19T18:34:44;66254.78;;;10.31;59.30
37132;BME280;23035;50.032;21.978;2023-03-19T18:39:48;66375.94;;;11.44;57.59
37132;BME280;23035;50.032;21.978;2023-03-19T18:44:53;66320.13;;;10.91;58.41
37132;BME280;23035;50.032;21.978;2023-03-19T18:49:58;66284.81;;;10.60;60.77
37132;BME280;23035;50.032;21.978;2023-03-19T18:55:03;66310.56;;;10.84;59.96
37132;BME280;23035;50.032;21.978;2023-03-19T19:00:17;66275.69;;;10.51;60.93
37132;BME280;23035;50.032;21.978;2023-03-19T19:05:26;66289.47;;;10.59;61.18
37132;BME280;23035;50.032;21.978;2023-03-19T19:10:32;66296.72;;;10.74;61.13
37132;BME280;23035;50.032;21.978;2023-03-19T19:15:36;66138.28;;;9.16;68.12
37132;BME280;23035;50.032;21.978;2023-03-19T19:20:42;66103.72;;;8.90;70.31
37132;BME280;23035;50.032;21.978;2023-03-19T19:25:48;66160.34;;;9.39;69.70
37132;BME280;23035;50.032;21.978;2023-03-19T19:30:54;66089.16;;;8.74;71.43
37132;BME280;23035;50.032;21.978;2023-03-19T19:36:01;66251.56;;;10.28;64.64
37132;BME280;23035;50.032;21.978;2023-03-19T19:41:08;66219.28;;;9.95;65.12
37132;BME280;23035;50.032;21.978;2023-03-19T19:46:14;66180.31;;;9.63;66.31
37132;BME280;23035;50.032;21.978;2023-03-19T19:51:23;66141.50;;;9.19;67.96
37132;BME280;23035;50.032;21.978;2023-03-19T19:56:27;66207.06;;;9.86;66.71
37132;BME280;23035;50.032;21.978;2023-03-19T20:01:33;66207.50;;;9.84;66.13
37132;BME280;23035;50.032;21.978;2023-03-19T20:06:39;66153.28;;;9.30;68.08
37132;BME280;23035;50.032;21.978;2023-03-19T20:11:43;66201.53;;;9.76;65.70
37132;BME280;23035;50.032;21.978;2023-03-19T20:16:49;66188.22;;;9.66;66.57
37132;BME280;23035;50.032;21.978;2023-03-19T20:21:55;66277.94;;;10.56;63.13
37132;BME280;23035;50.032;21.978;2023-03-19T20:26:59;66262.22;;;10.36;63.90
37132;BME280;23035;50.032;21.978;2023-03-19T20:32:13;66181.22;;;9.59;66.05
37132;BME280;23035;50.032;21.978;2023-03-19T20:37:28;66168.91;;;9.47;67.60
37132;BME280;23035;50.032;21.978;2023-03-19T20:42:32;66218.66;;;9.92;65.91
37132;BME280;23035;50.032;21.978;2023-03-19T20:47:37;66224.66;;;10.00;65.14
37132;BME280;23035;50.032;21.978;2023-03-19T20:52:42;66288.13;;;10.66;61.94
37132;BME280;23035;50.032;21.978;2023-03-19T20:57:48;66218.94;;;10.00;65.83
37132;BME280;23035;50.032;21.978;2023-03-19T21:02:54;66191.41;;;9.69;67.69
37132;BME280;23035;50.032;21.978;2023-03-19T21:08:00;66146.41;;;9.26;68.96
37132;BME280;23035;50.032;21.978;2023-03-19T21:13:04;66174.25;;;9.53;68.07
37132;BME280;23035;50.032;21.978;2023-03-19T21:18:09;66175.78;;;9.52;68.50
37132;BME280;23035;50.032;21.978;2023-03-19T21:23:18;66227.25;;;10.00;65.02
37132;BME280;23035;50.032;21.978;2023-03-19T21:28:27;66095.44;;;8.75;69.62
37132;BME280;23035;50.032;21.978;2023-03-19T21:33:34;66124.00;;;9.07;69.05
37132;BME280;23035;50.032;21.978;2023-03-19T21:38:40;66166.78;;;9.45;67.98
37132;BME280;23035;50.032;21.978;2023-03-19T21:43:47;66182.84;;;9.61;67.98
37132;BME280;23035;50.032;21.978;2023-03-19T21:48:55;66124.97;;;9.06;71.00
37132;BME280;23035;50.032;21.978;2023-03-19T21:54:01;66053.75;;;8.38;74.36
37132;BME280;23035;50.032;21.978;2023-03-19T21:59:11;66030.25;;;8.18;74.21
37132;BME280;23035;50.032;21.978;2023-03-19T22:04:16;66082.75;;;8.68;72.89
37132;BME280;23035;50.032;21.978;2023-03-19T22:09:22;66110.06;;;8.94;72.21
37132;BME280;23035;50.032;21.978;2023-03-19T22:14:26;66010.91;;;7.97;76.37
37132;BME280;23035;50.032;21.978;2023-03-19T22:19:31;66053.22;;;8.38;74.33
37132;BME280;23035;50.032;21.978;2023-03-19T22:24:37;66003.41;;;7.90;75.72
37132;BME280;23035;50.032;21.978;2023-03-19T22:29:41;65956.84;;;7.46;77.83
37132;BME280;23035;50.032;21.978;2023-03-19T22:34:45;65990.13;;;7.80;77.44
37132;BME280;23035;50.032;21.978;2023-03-19T22:39:51;65926.47;;;7.19;79.55
37132;BME280;23035;50.032;21.978;2023-03-19T22:44:55;65934.56;;;7.30;80.14
37132;BME280;23035;50.032;21.978;2023-03-19T22:49:59;66031.78;;;8.17;74.07
37132;BME280;23035;50.032;21.978;2023-03-19T22:55:06;66029.63;;;8.15;74.42
37132;BME280;23035;50.032;21.978;2023-03-19T23:00:19;66051.16;;;8.38;73.19
37132;BME280;23035;50.032;21.978;2023-03-19T23:05:33;66033.84;;;8.17;72.98
37132;BME280;23035;50.032;21.978;2023-03-19T23:10:40;66000.75;;;7.88;76.29
37132;BME280;23035;50.032;21.978;2023-03-19T23:15:46;66002.25;;;7.87;75.48
37132;BME280;23035;50.032;21.978;2023-03-19T23:20:52;65954.63;;;7.41;79.57
37132;BME280;23035;50.032;21.978;2023-03-19T23:25:57;66036.50;;;8.19;75.59
37132;BME280;23035;50.032;21.978;2023-03-19T23:31:02;65946.78;;;7.39;79.36
37132;BME280;23035;50.032;21.978;2023-03-19T23:36:06;65911.91;;;7.03;83.02
37132;BME280;23035;50.032;21.978;2023-03-19T23:41:17;65944.00;;;7.34;80.05
37132;BME280;23035;50.032;21.978;2023-03-19T23:46:23;66004.56;;;7.94;76.50
37132;BME280;23035;50.032;21.978;2023-03-19T23:51:27;65982.97;;;7.68;76.29
37132;BME280;23035;50.032;21.978;2023-03-19T23:56:33;65955.53;;;7.52;77.80
